createdAt,value
2023-12-09T00:00:47.236Z,97990.20
2023-12-09T00:03:36.148Z,97992.15
2023-12-09T00:06:05.596Z,97992.69
2023-12-09T00:08:34.031Z,97992.52
2023-12-09T00:11:02.517Z,97994.92
2023-12-09T00:13:33.438Z,97992.61
2023-12-09T00:16:01.799Z,97991.29
2023-12-09T00:18:30.212Z,97987.25
2023-12-09T00:20:58.998Z,97985.29
2023-12-09T00:23:27.673Z,97985.23
2023-12-09T00:25:56.041Z,97988.45
2023-12-09T00:28:24.406Z,97988.02
2023-12-09T00:30:52.992Z,97986.08
2023-12-09T00:33:21.593Z,97984.14
2023-12-09T00:35:50.580Z,97984.81
2023-12-09T00:38:18.983Z,97987.80
2023-12-09T00:40:47.318Z,97990.63
2023-12-09T00:43:15.732Z,97991.23
2023-12-09T00:45:44.046Z,97992.73
2023-12-09T00:48:12.861Z,97998.69
2023-12-09T00:50:41.579Z,98001.87
2023-12-09T00:53:10.203Z,98005.40
2023-12-09T00:55:38.586Z,98001.80
2023-12-09T00:58:07.023Z,98001.92
2023-12-09T01:00:35.350Z,98002.36
2023-12-09T01:03:03.745Z,97999.38
2023-12-09T01:05:32.226Z,97997.87
2023-12-09T01:08:00.609Z,97994.27
2023-12-09T01:10:28.795Z,97991.02
2023-12-09T01:12:57.131Z,97987.91
2023-12-09T01:15:25.443Z,97987.61
2023-12-09T01:17:53.894Z,97982.56
2023-12-09T01:20:22.406Z,97982.35
2023-12-09T01:22:50.693Z,97980.73
2023-12-09T01:25:19.660Z,97981.91
2023-12-09T01:27:48.290Z,97984.45
2023-12-09T01:30:16.762Z,97982.38
2023-12-09T01:32:45.439Z,97982.55
2023-12-09T01:35:14.111Z,97983.80
2023-12-09T01:37:44.950Z,97977.94
2023-12-09T01:40:17.192Z,97979.01
2023-12-09T01:42:46.628Z,97981.77
2023-12-09T01:45:15.198Z,97978.33
2023-12-09T01:47:44.819Z,97974.23
2023-12-09T01:50:13.405Z,97974.80
2023-12-09T01:52:42.813Z,97971.38
2023-12-09T01:55:12.294Z,97966.43
2023-12-09T01:57:40.766Z,97965.83
2023-12-09T02:00:11.129Z,97963.66
2023-12-09T02:02:39.634Z,97961.25
2023-12-09T02:05:09.104Z,97961.52
2023-12-09T02:07:37.309Z,97961.64
2023-12-09T02:10:07.177Z,97959.23
2023-12-09T02:12:49.535Z,97957.19
2023-12-09T02:15:51.657Z,97951.88
2023-12-09T02:18:20.813Z,97946.23
2023-12-09T02:20:49.213Z,97945.55
2023-12-09T02:23:17.792Z,97946.07
2023-12-09T02:25:50.418Z,97948.09
2023-12-09T02:28:25.010Z,97951.73
2023-12-09T02:31:10.476Z,97954.02
2023-12-09T02:33:41.906Z,97956.98
2023-12-09T02:36:18.809Z,97957.16
2023-12-09T02:38:50.276Z,97954.59
2023-12-09T02:41:20.335Z,97954.42
2023-12-09T02:43:49.069Z,97958.49
2023-12-09T02:46:17.425Z,97957.06
2023-12-09T02:48:46.457Z,97957.34
2023-12-09T02:51:15.149Z,97955.50
2023-12-09T02:53:45.740Z,97953.86
2023-12-09T02:56:14.621Z,97949.30
2023-12-09T02:58:43.746Z,97950.46
2023-12-09T03:01:12.595Z,97951.73
2023-12-09T03:03:41.213Z,97953.84
2023-12-09T03:06:09.789Z,97958.55
2023-12-09T03:08:38.446Z,97957.39
2023-12-09T03:11:07.439Z,97956.70
2023-12-09T03:13:36.637Z,97958.24
2023-12-09T03:16:05.810Z,97959.63
2023-12-09T03:18:34.526Z,97959.93
2023-12-09T03:21:02.984Z,97957.80
2023-12-09T03:23:31.591Z,97957.05
2023-12-09T03:26:00.219Z,97953.33
2023-12-09T03:28:28.867Z,97952.70
2023-12-09T03:30:57.243Z,97953.98
2023-12-09T03:33:25.724Z,97954.58
2023-12-09T03:35:54.584Z,97952.63
2023-12-09T03:38:22.857Z,97950.67
2023-12-09T03:40:51.259Z,97952.83
2023-12-09T03:43:19.901Z,97953.31
2023-12-09T03:45:48.645Z,97950.34
2023-12-09T03:48:17.969Z,97947.72
2023-12-09T03:50:47.202Z,97948.52
2023-12-09T03:53:18.867Z,97951.11
2023-12-09T03:55:47.777Z,97947.97
2023-12-09T03:58:16.295Z,97949.68
2023-12-09T04:00:46.125Z,97953.53
2023-12-09T04:03:14.631Z,97956.35
2023-12-09T04:05:43.171Z,97956.95
2023-12-09T04:08:11.625Z,97957.34
2023-12-09T04:10:39.963Z,97957.44
2023-12-09T04:13:08.557Z,97958.04
2023-12-09T04:15:40.036Z,97956.20
2023-12-09T04:18:08.952Z,97953.52
2023-12-09T04:20:38.043Z,97956.48
2023-12-09T04:23:06.570Z,97957.60
2023-12-09T04:25:35.271Z,97956.78
2023-12-09T04:28:04.325Z,97959.83
2023-12-09T04:30:32.935Z,97958.64
2023-12-09T04:33:01.755Z,97953.80
2023-12-09T04:35:30.201Z,97953.89
2023-12-09T04:37:58.597Z,97949.83
2023-12-09T04:40:27.060Z,97952.07
2023-12-09T04:42:55.396Z,97951.55
2023-12-09T04:45:24.127Z,97952.42
2023-12-09T04:47:53.422Z,97952.94
2023-12-09T04:50:22.627Z,97951.71
2023-12-09T04:52:51.173Z,97953.41
2023-12-09T04:55:19.573Z,97955.98
2023-12-09T04:57:48.143Z,97959.23
2023-12-09T05:00:16.927Z,97964.52
2023-12-09T05:02:45.719Z,97966.38
2023-12-09T05:05:15.427Z,97968.05
2023-12-09T05:07:43.841Z,97965.22
2023-12-09T05:10:13.834Z,97967.56
2023-12-09T05:12:42.491Z,97969.48
2023-12-09T05:15:12.311Z,97969.30
2023-12-09T05:17:40.955Z,97968.74
2023-12-09T05:20:11.290Z,97972.89
2023-12-09T05:22:39.765Z,97976.02
2023-12-09T05:25:08.610Z,97980.92
2023-12-09T05:27:37.034Z,97986.19
2023-12-09T05:30:06.340Z,97988.56
2023-12-09T05:32:34.807Z,97990.95
2023-12-09T05:35:03.815Z,97992.45
2023-12-09T05:37:32.732Z,97991.45
2023-12-09T05:40:01.132Z,97989.48
2023-12-09T05:42:30.120Z,97990.27
2023-12-09T05:45:00.160Z,97993.70
2023-12-09T05:47:29.380Z,97994.48
2023-12-09T05:49:57.891Z,97999.88
2023-12-09T05:52:26.616Z,98002.73
2023-12-09T05:54:55.314Z,98003.61
2023-12-09T05:57:24.031Z,98006.61
2023-12-09T05:59:52.309Z,98007.24
2023-12-09T06:02:20.842Z,98009.11
2023-12-09T06:04:49.599Z,98005.99
2023-12-09T06:07:18.109Z,98005.84
2023-12-09T06:09:46.600Z,98007.20
2023-12-09T06:12:15.131Z,97999.58
2023-12-09T06:14:43.801Z,97992.85
2023-12-09T06:17:12.187Z,97993.05
2023-12-09T06:19:42.063Z,97995.84
2023-12-09T06:22:10.768Z,97996.19
2023-12-09T06:24:39.160Z,97997.11
2023-12-09T06:27:07.610Z,97995.82
2023-12-09T06:29:36.549Z,97996.27
2023-12-09T06:32:05.937Z,97996.36
2023-12-09T06:34:34.908Z,97993.11
2023-12-09T06:37:03.530Z,97992.65
2023-12-09T06:39:32.324Z,97992.56
2023-12-09T06:42:01.561Z,97995.24
2023-12-09T06:44:30.161Z,97993.65
2023-12-09T06:46:58.740Z,97994.36
2023-12-09T06:49:27.807Z,97997.64
2023-12-09T06:51:56.328Z,97999.81
2023-12-09T06:54:24.773Z,98003.80
2023-12-09T06:56:53.475Z,98005.33
2023-12-09T06:59:22.072Z,98009.73
2023-12-09T07:01:51.126Z,98006.92
2023-12-09T07:04:20.237Z,98009.49
2023-12-09T07:06:48.512Z,98012.57
2023-12-09T07:09:16.981Z,98013.83
2023-12-09T07:11:45.766Z,98014.55
2023-12-09T07:14:16.728Z,98011.30
2023-12-09T07:16:45.703Z,98011.39
2023-12-09T07:19:14.402Z,98010.44
2023-12-09T07:21:43.056Z,98008.33
2023-12-09T07:24:11.610Z,98007.77
2023-12-09T07:26:40.101Z,98006.19
2023-12-09T07:29:09.094Z,98007.02
2023-12-09T07:31:37.684Z,98008.72
2023-12-09T07:34:06.168Z,98006.90
2023-12-09T07:36:34.660Z,98012.27
2023-12-09T07:39:03.367Z,98017.20
2023-12-09T07:41:31.996Z,98018.15
2023-12-09T07:44:00.712Z,98018.71
2023-12-09T07:46:29.524Z,98014.45
2023-12-09T07:48:58.364Z,98015.65
2023-12-09T07:51:26.726Z,98015.83
2023-12-09T07:53:55.280Z,98014.30
2023-12-09T07:56:23.790Z,98012.17
2023-12-09T07:58:52.206Z,98014.58
2023-12-09T08:01:21.149Z,98013.97
2023-12-09T08:03:49.612Z,98012.30
2023-12-09T08:06:18.193Z,98016.19
2023-12-09T08:08:48.061Z,98021.25
2023-12-09T08:11:16.577Z,98017.89
2023-12-09T08:13:45.186Z,98017.45
2023-12-09T08:16:14.981Z,98021.02
2023-12-09T08:18:44.642Z,98023.48
2023-12-09T08:21:13.197Z,98022.11
2023-12-09T08:23:41.625Z,98024.55
2023-12-09T08:26:11.766Z,98021.65
2023-12-09T08:28:40.183Z,98018.69
2023-12-09T08:31:09.712Z,98016.16
2023-12-09T08:33:38.591Z,98017.26
2023-12-09T08:36:08.029Z,98018.58
2023-12-09T08:38:36.539Z,98019.81
2023-12-09T08:41:05.369Z,98016.83
2023-12-09T08:43:33.772Z,98015.42
2023-12-09T08:46:02.248Z,98015.70
2023-12-09T08:48:30.772Z,98009.95
2023-12-09T08:50:59.439Z,98011.77
2023-12-09T08:53:27.977Z,98013.89
2023-12-09T08:55:56.440Z,98011.27
2023-12-09T08:58:24.714Z,98008.34
2023-12-09T09:00:53.678Z,98004.95
2023-12-09T09:03:22.767Z,97997.56
2023-12-09T09:05:51.175Z,97993.86
2023-12-09T09:08:19.871Z,97993.45
2023-12-09T09:10:48.747Z,97989.23
2023-12-09T09:13:17.463Z,97991.73
2023-12-09T09:15:45.987Z,97990.64
2023-12-09T09:18:15.201Z,97985.52
2023-12-09T09:20:44.376Z,97982.27
2023-12-09T09:23:14.512Z,97978.11
2023-12-09T09:25:43.023Z,97975.23
2023-12-09T09:28:11.262Z,97972.84
2023-12-09T09:30:39.772Z,97966.21
2023-12-09T09:33:08.372Z,97965.41
2023-12-09T09:35:37.358Z,97957.84
2023-12-09T09:38:05.760Z,97953.25
2023-12-09T09:40:34.397Z,97956.45
2023-12-09T09:43:10.098Z,97955.94
2023-12-09T09:45:39.570Z,97953.04
2023-12-09T09:48:14.370Z,97948.41
2023-12-09T09:50:46.797Z,97946.56
2023-12-09T09:53:21.561Z,97943.46
2023-12-09T09:55:50.779Z,97943.42
2023-12-09T09:58:19.644Z,97941.02
2023-12-09T10:00:48.211Z,97936.16
2023-12-09T10:03:16.928Z,97932.67
2023-12-09T10:05:45.279Z,97925.60
2023-12-09T10:08:13.562Z,97922.64
2023-12-09T10:10:41.878Z,97919.06
2023-12-09T10:13:10.619Z,97921.52
2023-12-09T10:15:39.347Z,97918.66
2023-12-09T10:18:14.539Z,97911.70
2023-12-09T10:20:46.877Z,97903.94
2023-12-09T10:23:17.262Z,97901.34
2023-12-09T10:25:48.484Z,97895.44
2023-12-09T10:28:17.060Z,97889.69
2023-12-09T10:30:47.303Z,97886.54
2023-12-09T10:33:16.894Z,97882.75
2023-12-09T10:35:46.027Z,97881.62
2023-12-09T10:38:17.875Z,97877.91
2023-12-09T10:40:46.140Z,97869.33
2023-12-09T10:43:14.911Z,97867.17
2023-12-09T10:45:44.244Z,97867.13
2023-12-09T10:48:13.017Z,97863.39
2023-12-09T10:50:46.304Z,97871.10
2023-12-09T10:53:14.780Z,97872.48
2023-12-09T10:55:43.173Z,97870.08
2023-12-09T10:58:13.553Z,97869.69
2023-12-09T11:00:43.343Z,97864.23
2023-12-09T11:03:12.234Z,97867.08
2023-12-09T11:05:45.972Z,97864.98
2023-12-09T11:08:15.227Z,97865.42
2023-12-09T11:10:44.189Z,97869.69
2023-12-09T11:13:13.385Z,97870.48
2023-12-09T11:15:44.797Z,97868.79
2023-12-09T11:18:15.769Z,97863.84
2023-12-09T11:20:47.594Z,97861.23
2023-12-09T11:23:16.199Z,97863.30
2023-12-09T11:25:45.263Z,97859.01
2023-12-09T11:28:14.430Z,97855.38
2023-12-09T11:30:46.333Z,97854.31
2023-12-09T11:33:15.443Z,97851.19
2023-12-09T11:35:47.422Z,97851.39
2023-12-09T11:38:17.539Z,97847.77
2023-12-09T11:40:46.985Z,97845.86
2023-12-09T11:43:16.906Z,97845.90
2023-12-09T11:45:45.367Z,97837.33
2023-12-09T11:48:14.615Z,97835.50
2023-12-09T11:50:43.045Z,97837.81
2023-12-09T11:53:11.516Z,97837.88
2023-12-09T11:55:40.955Z,97838.11
2023-12-09T11:58:11.242Z,97831.60
2023-12-09T12:00:40.172Z,97830.41
2023-12-09T12:03:09.002Z,97829.25
2023-12-09T12:05:38.408Z,97825.37
2023-12-09T12:08:07.091Z,97823.56
2023-12-09T12:10:37.696Z,97820.59
2023-12-09T12:13:06.671Z,97819.65
2023-12-09T12:15:35.988Z,97819.63
2023-12-09T12:18:04.549Z,97816.83
2023-12-09T12:20:33.030Z,97820.23
2023-12-09T12:23:01.834Z,97818.64
2023-12-09T12:25:30.169Z,97813.92
2023-12-09T12:27:58.839Z,97815.32
2023-12-09T12:30:28.348Z,97813.05
2023-12-09T12:32:57.897Z,97817.22
2023-12-09T12:35:27.770Z,97815.13
2023-12-09T12:37:59.312Z,97814.19
2023-12-09T12:40:28.161Z,97812.92
2023-12-09T12:42:56.868Z,97814.81
2023-12-09T12:45:28.716Z,97813.04
2023-12-09T12:47:58.089Z,97810.00
2023-12-09T12:50:26.931Z,97811.67
2023-12-09T12:52:56.179Z,97812.45
2023-12-09T12:55:25.078Z,97811.45
2023-12-09T12:57:56.060Z,97811.32
2023-12-09T13:00:25.347Z,97812.04
2023-12-09T13:02:54.166Z,97815.89
2023-12-09T13:05:24.239Z,97813.16
2023-12-09T13:07:53.396Z,97814.89
2023-12-09T13:10:21.834Z,97813.46
2023-12-09T13:12:50.420Z,97813.27
2023-12-09T13:15:18.905Z,97810.10
2023-12-09T13:17:47.352Z,97811.56
2023-12-09T13:20:15.826Z,97815.30
2023-12-09T13:22:47.151Z,97811.02
2023-12-09T13:25:17.836Z,97816.63
2023-12-09T13:27:47.344Z,97816.23
2023-12-09T13:30:16.162Z,97816.22
2023-12-09T13:32:47.022Z,97818.30
2023-12-09T13:35:16.523Z,97818.64
2023-12-09T13:37:46.242Z,97824.64
2023-12-09T13:40:15.310Z,97826.81
2023-12-09T13:42:44.098Z,97829.40
2023-12-09T13:45:14.878Z,97826.09
2023-12-09T13:47:43.254Z,97822.20
2023-12-09T13:50:12.745Z,97825.20
2023-12-09T13:52:41.462Z,97827.69
2023-12-09T13:55:10.442Z,97830.30
2023-12-09T13:57:39.158Z,97830.07
2023-12-09T14:00:09.534Z,97833.17
2023-12-09T14:02:41.103Z,97833.77
2023-12-09T14:05:11.814Z,97838.30
2023-12-09T14:07:42.150Z,97839.42
2023-12-09T14:10:11.116Z,97837.81
2023-12-09T14:12:43.409Z,97835.00
2023-12-09T14:15:15.346Z,97838.44
2023-12-09T14:17:45.310Z,97839.83
2023-12-09T14:20:16.652Z,97839.10
2023-12-09T14:22:47.385Z,97839.02
2023-12-09T14:25:15.986Z,97838.67
2023-12-09T14:27:44.819Z,97840.92
2023-12-09T14:30:14.257Z,97838.11
2023-12-09T14:32:46.246Z,97839.21
2023-12-09T14:35:16.080Z,97839.30
2023-12-09T14:37:49.601Z,97839.81
2023-12-09T14:40:18.569Z,97838.12
2023-12-09T14:42:47.060Z,97837.13
2023-12-09T14:45:16.111Z,97835.05
2023-12-09T14:47:53.881Z,97831.31
2023-12-09T14:50:28.256Z,97829.69
2023-12-09T14:52:56.792Z,97829.41
2023-12-09T14:55:25.781Z,97826.04
2023-12-09T14:57:54.310Z,97826.27
2023-12-09T15:00:23.638Z,97824.92
2023-12-09T15:02:52.095Z,97825.26
2023-12-09T15:05:20.469Z,97824.54
2023-12-09T15:07:49.084Z,97827.09
2023-12-09T15:10:17.424Z,97822.02
2023-12-09T15:12:46.510Z,97821.45
2023-12-09T15:15:16.845Z,97822.40
2023-12-09T15:17:45.002Z,97824.25
2023-12-09T15:20:13.504Z,97821.80
2023-12-09T15:22:41.991Z,97820.55
2023-12-09T15:25:10.886Z,97822.58
2023-12-09T15:27:40.618Z,97822.55
2023-12-09T15:30:09.713Z,97816.98
2023-12-09T15:32:40.938Z,97816.56
2023-12-09T15:35:09.722Z,97814.79
2023-12-09T15:37:38.872Z,97813.91
2023-12-09T15:40:12.363Z,97817.05
2023-12-09T15:42:42.321Z,97818.12
2023-12-09T15:45:12.637Z,97818.34
2023-12-09T15:47:41.620Z,97818.73
2023-12-09T15:50:10.536Z,97817.22
2023-12-09T15:52:38.887Z,97819.35
2023-12-09T15:55:07.689Z,97820.44
2023-12-09T15:57:36.137Z,97816.33
2023-12-09T16:00:05.415Z,97816.17
2023-12-09T16:02:34.437Z,97814.77
2023-12-09T16:05:03.099Z,97813.70
2023-12-09T16:07:31.497Z,97814.67
2023-12-09T16:09:59.928Z,97813.77
2023-12-09T16:12:28.650Z,97818.73
2023-12-09T16:14:57.193Z,97815.76
2023-12-09T16:17:26.231Z,97812.80
2023-12-09T16:19:54.849Z,97816.03
2023-12-09T16:22:23.559Z,97818.58
2023-12-09T16:24:52.193Z,97818.88
2023-12-09T16:27:20.941Z,97823.70
2023-12-09T16:29:49.265Z,97829.00
2023-12-09T16:32:17.858Z,97829.17
2023-12-09T16:34:46.252Z,97827.80
2023-12-09T16:37:14.635Z,97820.87
2023-12-09T16:39:43.166Z,97817.27
2023-12-09T16:42:11.861Z,97814.88
2023-12-09T16:44:40.138Z,97811.42
2023-12-09T16:47:08.849Z,97808.56
2023-12-09T16:49:38.748Z,97801.92
2023-12-09T16:52:07.151Z,97795.27
2023-12-09T16:54:35.841Z,97787.26
2023-12-09T16:57:04.515Z,97789.72
2023-12-09T16:59:33.014Z,97788.88
2023-12-09T17:02:01.673Z,97781.83
2023-12-09T17:04:30.123Z,97779.08
2023-12-09T17:06:58.785Z,97777.88
2023-12-09T17:09:27.464Z,97780.44
2023-12-09T17:11:56.813Z,97777.34
2023-12-09T17:14:25.366Z,97770.73
2023-12-09T17:16:55.217Z,97774.96
2023-12-09T17:19:24.333Z,97778.88
2023-12-09T17:21:53.043Z,97778.34
2023-12-09T17:24:22.064Z,97777.45
2023-12-09T17:26:50.831Z,97777.42
2023-12-09T17:29:20.302Z,97772.92
2023-12-09T17:31:48.832Z,97772.56
2023-12-09T17:34:17.409Z,97767.56
2023-12-09T17:36:46.103Z,97762.73
2023-12-09T17:39:16.068Z,97758.95
2023-12-09T17:41:44.946Z,97752.72
2023-12-09T17:44:13.622Z,97753.58
2023-12-09T17:46:43.024Z,97752.88
2023-12-09T17:49:11.793Z,97748.90
2023-12-09T17:51:40.553Z,97747.37
2023-12-09T17:54:09.948Z,97749.79
2023-12-09T17:56:40.116Z,97747.41
2023-12-09T17:59:09.070Z,97752.27
2023-12-09T18:01:37.648Z,97755.23
2023-12-09T18:04:06.651Z,97754.05
2023-12-09T18:06:35.481Z,97750.98
2023-12-09T18:09:04.248Z,97752.86
2023-12-09T18:11:33.000Z,97756.46
2023-12-09T18:14:03.596Z,97760.38
2023-12-09T18:16:33.029Z,97760.14
2023-12-09T18:19:01.655Z,97758.51
2023-12-09T18:21:30.188Z,97756.06
2023-12-09T18:23:58.870Z,97757.92
2023-12-09T18:26:27.938Z,97759.23
2023-12-09T18:28:56.419Z,97755.91
2023-12-09T18:31:25.198Z,97753.77
2023-12-09T18:33:53.723Z,97751.65
2023-12-09T18:36:25.237Z,97748.69
2023-12-09T18:38:54.330Z,97745.03
2023-12-09T18:41:22.872Z,97745.88
2023-12-09T18:43:51.222Z,97743.95
2023-12-09T18:46:21.197Z,97744.98
2023-12-09T18:48:49.973Z,97739.27
2023-12-09T18:51:18.407Z,97734.66
2023-12-09T18:53:46.618Z,97733.66
2023-12-09T18:56:15.495Z,97735.59
2023-12-09T18:58:44.320Z,97733.55
2023-12-09T19:01:12.807Z,97728.77
2023-12-09T19:03:41.708Z,97730.38
2023-12-09T19:06:10.953Z,97727.16
2023-12-09T19:08:44.044Z,97721.65
2023-12-09T19:11:13.350Z,97718.52
2023-12-09T19:13:42.015Z,97711.41
2023-12-09T19:16:10.677Z,97711.90
2023-12-09T19:18:39.274Z,97710.77
2023-12-09T19:21:07.948Z,97709.19
2023-12-09T19:23:36.419Z,97701.05
2023-12-09T19:26:05.117Z,97700.27
2023-12-09T19:28:34.073Z,97695.39
2023-12-09T19:31:02.414Z,97693.76
2023-12-09T19:33:30.788Z,97689.89
2023-12-09T19:35:59.789Z,97692.39
2023-12-09T19:38:28.221Z,97698.19
2023-12-09T19:40:56.567Z,97696.44
2023-12-09T19:43:24.755Z,97690.68
2023-12-09T19:45:53.397Z,97687.20
2023-12-09T19:48:22.043Z,97680.35
2023-12-09T19:50:50.587Z,97677.29
2023-12-09T19:53:19.499Z,97674.36
2023-12-09T19:55:47.741Z,97666.45
2023-12-09T19:58:17.121Z,97660.44
2023-12-09T20:00:45.845Z,97659.94
2023-12-09T20:03:15.391Z,97656.36
2023-12-09T20:05:44.042Z,97648.40
2023-12-09T20:08:12.992Z,97645.27
2023-12-09T20:10:42.596Z,97640.05
2023-12-09T20:13:10.939Z,97634.66
2023-12-09T20:15:39.473Z,97635.63
2023-12-09T20:18:08.968Z,97629.21
2023-12-09T20:20:37.402Z,97625.01
2023-12-09T20:23:06.662Z,97627.33
2023-12-09T20:25:35.756Z,97627.92
2023-12-09T20:28:05.900Z,97632.16
2023-12-09T20:30:36.538Z,97623.17
2023-12-09T20:33:05.362Z,97626.22
2023-12-09T20:35:34.200Z,97634.96
2023-12-09T20:38:04.622Z,97632.02
2023-12-09T20:40:33.072Z,97615.89
2023-12-09T20:43:01.599Z,97616.88
2023-12-09T20:45:30.107Z,97622.79
2023-12-09T20:47:58.688Z,97617.37
2023-12-09T20:50:27.168Z,97622.09
2023-12-09T20:52:56.566Z,97625.80
2023-12-09T20:55:25.116Z,97627.45
2023-12-09T20:57:53.657Z,97624.45
2023-12-09T21:00:22.178Z,97622.02
2023-12-09T21:02:50.634Z,97617.87
2023-12-09T21:05:19.828Z,97615.66
2023-12-09T21:07:48.806Z,97616.41
2023-12-09T21:10:17.456Z,97612.87
2023-12-09T21:12:46.035Z,97617.07
2023-12-09T21:15:14.718Z,97613.02
2023-12-09T21:17:43.197Z,97613.41
2023-12-09T21:20:12.000Z,97614.30
2023-12-09T21:22:40.430Z,97611.08
2023-12-09T21:25:11.439Z,97607.64
2023-12-09T21:27:40.205Z,97611.54
2023-12-09T21:30:09.122Z,97617.15
2023-12-09T21:32:37.610Z,97616.56
2023-12-09T21:35:07.076Z,97612.04
2023-12-09T21:37:36.128Z,97609.05
2023-12-09T21:40:05.606Z,97610.59
2023-12-09T21:42:34.095Z,97612.98
2023-12-09T21:45:03.218Z,97605.91
2023-12-09T21:47:31.795Z,97604.55
2023-12-09T21:50:00.461Z,97605.77
2023-12-09T21:52:29.245Z,97597.19
2023-12-09T21:54:57.807Z,97590.72
2023-12-09T21:57:29.002Z,97589.59
2023-12-09T21:59:57.579Z,97589.67
2023-12-09T22:02:26.461Z,97584.91
2023-12-09T22:04:56.323Z,97582.00
2023-12-09T22:07:25.581Z,97578.27
2023-12-09T22:09:54.173Z,97574.83
2023-12-09T22:12:22.851Z,97572.20
2023-12-09T22:14:51.464Z,97568.70
2023-12-09T22:17:20.418Z,97565.52
2023-12-09T22:19:48.796Z,97561.13
2023-12-09T22:22:17.132Z,97552.66
2023-12-09T22:24:45.571Z,97546.25
2023-12-09T22:27:14.047Z,97543.79
2023-12-09T22:29:42.418Z,97540.35
2023-12-09T22:32:10.988Z,97535.73
2023-12-09T22:34:39.501Z,97530.94
2023-12-09T22:37:07.983Z,97526.83
2023-12-09T22:39:36.436Z,97525.83
2023-12-09T22:42:06.020Z,97526.39
2023-12-09T22:44:34.435Z,97518.48
2023-12-09T22:47:02.807Z,97513.86
2023-12-09T22:49:31.706Z,97512.32
2023-12-09T22:52:03.482Z,97513.14
2023-12-09T22:54:34.810Z,97519.64
2023-12-09T22:57:09.812Z,97516.67
2023-12-09T22:59:40.156Z,97505.81
2023-12-09T23:02:09.691Z,97500.94
2023-12-09T23:04:38.535Z,97509.79
2023-12-09T23:07:07.327Z,97507.36
2023-12-09T23:09:35.631Z,97508.94
2023-12-09T23:12:04.663Z,97508.99
2023-12-09T23:14:32.952Z,97500.96
2023-12-09T23:17:01.483Z,97497.79
2023-12-09T23:19:30.439Z,97492.17
2023-12-09T23:21:58.982Z,97489.48
2023-12-09T23:24:27.606Z,97494.35
2023-12-09T23:26:56.318Z,97495.44
2023-12-09T23:29:24.648Z,97492.58
2023-12-09T23:31:53.009Z,97491.94
2023-12-09T23:34:23.433Z,97492.80
2023-12-09T23:36:52.020Z,97490.88
2023-12-09T23:39:20.227Z,97492.90
2023-12-09T23:41:49.259Z,97496.29
2023-12-09T23:44:17.571Z,97497.27
2023-12-09T23:46:45.848Z,97504.30
2023-12-09T23:49:14.409Z,97506.33
2023-12-09T23:51:43.023Z,97503.20
2023-12-09T23:54:11.615Z,97507.81
2023-12-09T23:56:40.196Z,97508.66
2023-12-09T23:59:08.538Z,97505.55
